Time;durP1;ratioP1;P1;durP2;ratioP2;P2;SDS_P1;SDS_P2;PMS_P1;PMS_P2;Temp;Humidity;BMP_temperature;BMP_pressure;BME280_temperature;BME280_humidity;BME280_pressure;Samples;Min_cycle;Max_cycle;Signal;HPM_P1;HPM_P2
2023/10/23 00:00:41;;;;;;;22.45;10.95;;;;;;;;;;4963351;28;20023;-47
2023/10/23 00:03:07;;;;;;;9.17;5.07;;;;;;;;;;4952970;28;20404;-46
2023/10/23 00:05:34;;;;;;;14.40;7.45;;;;;;;;;;4972671;28;20487;-49
2023/10/23 00:08:00;;;;;;;5.90;3.10;;;;;;;;;;4973550;28;20432;-50
2023/10/23 00:10:27;;;;;;;2.97;1.50;;;;;;;;;;4972315;28;20031;-46
2023/10/23 00:12:53;;;;;;;15.15;1.95;;;;;;;;;;4975279;28;20034;-46
2023/10/23 00:15:19;;;;;;;5.60;1.67;;;;;;;;;;4973346;28;20043;-49
2023/10/23 00:17:45;;;;;;;6.38;1.90;;;;;;;;;;4938778;29;20049;-48
2023/10/23 00:20:12;;;;;;;5.05;2.15;;;;;;;;;;4943452;28;20089;-47
2023/10/23 00:22:38;;;;;;;12.23;1.95;;;;;;;;;;4956515;28;20113;-48
2023/10/23 00:25:04;;;;;;;3.35;1.40;;;;;;;;;;4957744;28;20042;-47
2023/10/23 00:27:31;;;;;;;11.93;4.60;;;;;;;;;;4975172;28;20038;-50
2023/10/23 00:29:57;;;;;;;5.70;2.53;;;;;;;;;;4965062;28;20445;-48
2023/10/23 00:32:24;;;;;;;;;;;;;;;;;;4957463;28;20265;-46
2023/10/23 00:34:50;;;;;;;7.25;1.92;;;;;;;;;;4966654;28;19910;-48
2023/10/23 00:37:16;;;;;;;2.75;1.23;;;;;;;;;;4955836;29;20062;-46
2023/10/23 00:39:42;;;;;;;4.67;1.47;;;;;;;;;;4969547;28;20117;-46
2023/10/23 00:42:09;;;;;;;6.72;1.25;;;;;;;;;;4975312;28;20469;-49
2023/10/23 00:44:35;;;;;;;5.03;1.40;;;;;;;;;;4966087;28;20425;-46
2023/10/23 00:47:02;;;;;;;8.13;1.63;;;;;;;;;;4967041;28;20027;-46
2023/10/23 00:49:28;;;;;;;4.95;1.55;;;;;;;;;;4955725;29;20170;-46
2023/10/23 00:51:55;;;;;;;8.60;1.58;;;;;;;;;;4944789;28;20401;-46
2023/10/23 00:54:21;;;;;;;4.82;2.17;;;;;;;;;;4975388;28;20490;-46
2023/10/23 00:56:48;;;;;;;8.70;3.38;;;;;;;;;;4957136;28;20034;-48
2023/10/23 00:59:14;;;;;;;6.40;2.25;;;;;;;;;;4957488;28;20433;-47
2023/10/23 01:01:40;;;;;;;9.33;2.70;;;;;;;;;;4941295;28;20528;-46
2023/10/23 01:04:07;;;;;;;4.15;2.22;;;;;;;;;;4937994;29;20035;-49
2023/10/23 01:06:34;;;;;;;;;;;;;;;;;;4955651;29;20089;-46
2023/10/23 01:09:00;;;;;;;4.90;3.22;;;;;;;;;;4955243;28;19974;-48
2023/10/23 01:11:26;;;;;;;4.18;1.67;;;;;;;;;;4955087;28;20549;-50
2023/10/23 01:13:53;;;;;;;13.95;2.30;;;;;;;;;;4953516;28;20031;-47
2023/10/23 01:16:19;;;;;;;6.90;2.47;;;;;;;;;;4964601;28;20030;-47
2023/10/23 01:18:45;;;;;;;3.53;1.92;;;;;;;;;;4955491;28;20357;-49
2023/10/23 01:21:11;;;;;;;4.90;1.45;;;;;;;;;;4972416;28;20030;-46
2023/10/23 01:23:38;;;;;;;3.37;1.67;;;;;;;;;;4956531;28;20073;-47
2023/10/23 01:26:04;;;;;;;3.03;1.48;;;;;;;;;;4955386;28;20037;-53
2023/10/23 01:28:30;;;;;;;2.67;1.40;;;;;;;;;;4961361;28;20027;-48
2023/10/23 01:30:56;;;;;;;8.65;3.42;;;;;;;;;;4966863;28;20411;-47
2023/10/23 01:33:22;;;;;;;10.48;5.38;;;;;;;;;;4946808;28;20027;-48
2023/10/23 01:35:49;;;;;;;9.93;4.70;;;;;;;;;;4962018;28;20371;-51
2023/10/23 01:38:15;;;;;;;4.10;3.15;;;;;;;;;;4962311;28;20066;-47
2023/10/23 01:40:41;;;;;;;6.50;2.97;;;;;;;;;;4938458;29;20498;-52
2023/10/23 01:43:08;;;;;;;7.43;3.13;;;;;;;;;;4948894;28;20077;-49
2023/10/23 01:45:34;;;;;;;12.17;5.67;;;;;;;;;;4941120;28;20519;-50
2023/10/23 01:48:00;;;;;;;10.57;4.43;;;;;;;;;;4952919;28;20026;-48
2023/10/23 01:50:27;;;;;;;13.95;9.05;;;;;;;;;;4960994;28;20050;-50
2023/10/23 01:52:53;;;;;;;7.85;4.78;;;;;;;;;;4954319;28;20027;-48
2023/10/23 01:55:19;;;;;;;12.20;6.85;;;;;;;;;;4955754;28;20560;-50
2023/10/23 01:57:45;;;;;;;9.60;3.95;;;;;;;;;;4941815;28;20038;-49
2023/10/23 02:00:12;;;;;;;9.10;4.88;;;;;;;;;;4945766;28;20038;-47
2023/10/23 02:02:38;;;;;;;9.63;3.97;;;;;;;;;;4973826;28;20452;-52
2023/10/23 02:05:05;;;;;;;;;;;;;;;;;;4955018;28;20046;-46
2023/10/23 02:07:31;;;;;;;6.38;2.53;;;;;;;;;;4948025;28;19910;-46
2023/10/23 02:09:57;;;;;;;5.63;2.50;;;;;;;;;;4969721;28;20043;-48
2023/10/23 02:12:25;;;;;;;5.35;2.05;;;;;;;;;;4945035;28;20019;-48
2023/10/23 02:14:52;;;;;;;7.05;2.30;;;;;;;;;;4973195;28;20039;-48
2023/10/23 02:17:22;;;;;;;5.60;2.17;;;;;;;;;;4940505;28;20559;-46
2023/10/23 02:19:48;;;;;;;7.65;2.65;;;;;;;;;;4972527;28;20034;-47
2023/10/23 02:22:14;;;;;;;9.48;2.53;;;;;;;;;;4955518;28;20062;-46
2023/10/23 02:24:40;;;;;;;5.00;2.45;;;;;;;;;;4965723;28;20056;-49
2023/10/23 02:27:07;;;;;;;8.07;2.42;;;;;;;;;;4957766;28;20232;-46
2023/10/23 02:29:33;;;;;;;8.70;2.63;;;;;;;;;;4936544;29;20565;-47
2023/10/23 02:31:59;;;;;;;7.67;2.63;;;;;;;;;;4968602;28;20070;-50
2023/10/23 02:34:25;;;;;;;4.13;2.13;;;;;;;;;;4971475;28;20493;-46
2023/10/23 02:36:51;;;;;;;9.45;2.45;;;;;;;;;;4944906;28;20042;-50
2023/10/23 02:39:17;;;;;;;4.90;2.22;;;;;;;;;;4953005;28;20037;-50
2023/10/23 02:41:43;;;;;;;6.85;2.67;;;;;;;;;;4969403;28;20032;-48
2023/10/23 02:44:10;;;;;;;5.55;2.50;;;;;;;;;;4971400;28;20031;-47
2023/10/23 02:46:40;;;;;;;8.57;2.35;;;;;;;;;;4962289;28;20030;-48
2023/10/23 02:49:06;;;;;;;5.13;2.28;;;;;;;;;;4956347;28;20035;-47
2023/10/23 02:51:33;;;;;;;8.35;2.63;;;;;;;;;;4963910;28;20421;-46
2023/10/23 02:53:59;;;;;;;4.78;2.67;;;;;;;;;;4941596;28;20046;-51
2023/10/23 02:56:26;;;;;;;6.10;2.43;;;;;;;;;;4960022;28;20486;-47
2023/10/23 02:58:52;;;;;;;5.47;2.88;;;;;;;;;;4972056;28;20027;-46
2023/10/23 03:01:20;;;;;;;6.20;3.10;;;;;;;;;;4953765;28;20031;-46
2023/10/23 03:03:46;;;;;;;7.28;2.38;;;;;;;;;;4938962;28;20129;-46
2023/10/23 03:06:13;;;;;;;5.60;2.30;;;;;;;;;;4935598;29;20027;-46
2023/10/23 03:08:39;;;;;;;8.20;2.90;;;;;;;;;;4953268;28;20031;-49
2023/10/23 03:11:06;;;;;;;6.80;2.43;;;;;;;;;;4952501;28;20074;-51
2023/10/23 03:13:32;;;;;;;10.70;2.67;;;;;;;;;;4949409;28;20027;-49
2023/10/23 03:15:58;;;;;;;3.78;2.17;;;;;;;;;;4946674;29;20068;-46
2023/10/23 03:18:25;;;;;;;6.70;2.40;;;;;;;;;;4953366;29;20035;-48
2023/10/23 03:20:51;;;;;;;6.37;2.50;;;;;;;;;;4967901;28;20122;-46
2023/10/23 03:23:18;;;;;;;6.95;2.70;;;;;;;;;;4968921;28;20470;-46
2023/10/23 03:25:44;;;;;;;9.75;3.40;;;;;;;;;;4939662;28;20027;-47
2023/10/23 03:28:10;;;;;;;8.60;4.53;;;;;;;;;;4972679;28;20370;-46
2023/10/23 03:30:36;;;;;;;8.70;2.72;;;;;;;;;;4968008;28;20026;-47
2023/10/23 03:33:02;;;;;;;6.20;2.80;;;;;;;;;;4954856;28;20031;-48
2023/10/23 03:35:29;;;;;;;7.82;2.58;;;;;;;;;;4953350;28;20490;-46
2023/10/23 03:37:56;;;;;;;9.52;2.55;;;;;;;;;;4935790;28;20039;-46
2023/10/23 03:40:22;;;;;;;7.30;2.70;;;;;;;;;;4939002;29;20035;-45
2023/10/23 03:42:52;;;;;;;5.07;2.63;;;;;;;;;;4974925;28;20486;-48
2023/10/23 03:45:18;;;;;;;7.30;3.30;;;;;;;;;;4962736;28;20054;-48
2023/10/23 03:47:46;;;;;;;5.28;3.13;;;;;;;;;;4961409;28;20028;-47
2023/10/23 03:50:12;;;;;;;7.20;3.15;;;;;;;;;;4975938;28;20058;-45
2023/10/23 03:52:38;;;;;;;6.90;4.82;;;;;;;;;;4976040;28;20027;-46
2023/10/23 03:55:05;;;;;;;5.30;4.35;;;;;;;;;;4974754;28;20549;-48
2023/10/23 03:57:31;;;;;;;5.07;3.72;;;;;;;;;;4975360;28;20113;-48
2023/10/23 03:59:57;;;;;;;8.63;5.80;;;;;;;;;;4975804;28;20038;-46
2023/10/23 04:02:24;;;;;;;12.63;7.40;;;;;;;;;;4974958;28;20027;-47
2023/10/23 04:04:50;;;;;;;8.05;3.90;;;;;;;;;;4958340;28;20070;-48
2023/10/23 04:07:16;;;;;;;4.05;2.88;;;;;;;;;;4958431;28;20031;-46
2023/10/23 04:09:42;;;;;;;6.60;2.72;;;;;;;;;;4975617;28;20066;-46
2023/10/23 04:12:08;;;;;;;9.93;2.55;;;;;;;;;;5011853;23;20092;-55
2023/10/23 04:14:34;;;;;;;5.65;2.40;;;;;;;;;;4994872;28;20031;-53
2023/10/23 04:17:00;;;;;;;5.50;2.38;;;;;;;;;;4993824;28;20504;-52
2023/10/23 04:19:27;;;;;;;6.23;2.70;;;;;;;;;;4995021;28;20210;-55
2023/10/23 04:21:53;;;;;;;8.60;2.45;;;;;;;;;;4979260;28;20039;-54
2023/10/23 04:24:19;;;;;;;7.93;2.83;;;;;;;;;;4958123;28;20274;-55
2023/10/23 04:26:45;;;;;;;5.87;3.53;;;;;;;;;;4975331;28;20054;-54
2023/10/23 04:29:11;;;;;;;6.88;3.25;;;;;;;;;;4975421;28;20031;-55
2023/10/23 04:31:38;;;;;;;4.53;2.90;;;;;;;;;;4973977;28;20058;-54
2023/10/23 04:34:04;;;;;;;7.75;2.80;;;;;;;;;;4974203;28;20386;-55
2023/10/23 04:36:30;;;;;;;4.87;2.47;;;;;;;;;;4957944;28;20089;-55
2023/10/23 04:38:56;;;;;;;9.07;2.45;;;;;;;;;;4975308;28;20033;-55
2023/10/23 04:41:22;;;;;;;7.60;2.70;;;;;;;;;;4975149;28;20038;-55
2023/10/23 04:43:48;;;;;;;5.90;3.30;;;;;;;;;;4974995;28;20038;-55
2023/10/23 04:46:15;;;;;;;9.45;3.22;;;;;;;;;;4975038;28;20058;-55
2023/10/23 04:48:41;;;;;;;3.97;2.58;;;;;;;;;;4975135;28;20023;-52
2023/10/23 04:51:07;;;;;;;7.70;3.10;;;;;;;;;;4974605;28;20051;-55
2023/10/23 04:53:33;;;;;;;8.02;3.38;;;;;;;;;;4975000;28;20027;-52
2023/10/23 04:56:00;;;;;;;6.65;3.05;;;;;;;;;;4974668;28;20027;-51
2023/10/23 04:58:26;;;;;;;3.65;2.35;;;;;;;;;;4974828;28;20030;-51
2023/10/23 05:00:52;;;;;;;5.90;2.97;;;;;;;;;;4974710;28;20033;-54
2023/10/23 05:03:18;;;;;;;9.43;3.17;;;;;;;;;;4974712;28;20031;-54
2023/10/23 05:05:48;;;;;;;7.18;3.10;;;;;;;;;;4974674;28;20111;-51
2023/10/23 05:08:14;;;;;;;8.00;3.13;;;;;;;;;;4974357;28;20477;-52
2023/10/23 05:10:40;;;;;;;10.40;3.17;;;;;;;;;;4974275;28;20452;-50
2023/10/23 05:13:06;;;;;;;9.80;3.92;;;;;;;;;;4973348;28;20034;-50
2023/10/23 05:15:32;;;;;;;6.40;3.15;;;;;;;;;;4974560;28;20023;-52
2023/10/23 05:17:58;;;;;;;7.32;3.55;;;;;;;;;;4974324;28;20027;-51
2023/10/23 05:20:25;;;;;;;5.93;3.80;;;;;;;;;;4974377;28;20138;-53
2023/10/23 05:22:51;;;;;;;13.65;3.60;;;;;;;;;;4974406;28;20518;-55
2023/10/23 05:25:18;;;;;;;9.20;3.67;;;;;;;;;;4974282;28;20049;-58
2023/10/23 05:27:44;;;;;;;7.90;4.25;;;;;;;;;;4973290;28;20113;-52
2023/10/23 05:30:10;;;;;;;7.20;3.78;;;;;;;;;;4974506;28;20034;-57
2023/10/23 05:32:37;;;;;;;10.10;4.47;;;;;;;;;;4974179;28;20081;-57
2023/10/23 05:35:03;;;;;;;;;;;;;;;;;;4974655;28;20277;-53
2023/10/23 05:37:30;;;;;;;8.75;4.13;;;;;;;;;;4972799;28;20004;-53
2023/10/23 05:39:56;;;;;;;10.68;3.85;;;;;;;;;;4972792;28;20069;-57
2023/10/23 05:42:22;;;;;;;6.30;3.95;;;;;;;;;;4974058;28;20489;-55
2023/10/23 05:44:48;;;;;;;15.40;4.78;;;;;;;;;;4956549;28;20453;-55
2023/10/23 05:47:15;;;;;;;9.65;4.20;;;;;;;;;;4973790;28;20077;-55
2023/10/23 05:49:41;;;;;;;8.75;4.60;;;;;;;;;;4972692;28;20085;-53
2023/10/23 05:52:07;;;;;;;6.10;3.72;;;;;;;;;;4973783;28;20053;-53
2023/10/23 05:54:33;;;;;;;15.60;4.07;;;;;;;;;;4973730;28;20445;-52
2023/10/23 05:56:59;;;;;;;6.05;3.75;;;;;;;;;;4973746;28;20409;-53
2023/10/23 05:59:26;;;;;;;13.07;4.10;;;;;;;;;;4973703;28;20123;-53
2023/10/23 06:01:52;;;;;;;9.00;4.25;;;;;;;;;;4973216;28;20281;-51
2023/10/23 06:04:18;;;;;;;9.80;4.40;;;;;;;;;;4973687;28;20031;-52
2023/10/23 06:06:45;;;;;;;7.72;4.18;;;;;;;;;;4973515;28;20058;-52
2023/10/23 06:09:11;;;;;;;11.70;3.97;;;;;;;;;;4973456;28;20568;-53
2023/10/23 06:11:37;;;;;;;9.43;4.20;;;;;;;;;;4973318;28;20026;-52
2023/10/23 06:14:03;;;;;;;8.73;4.40;;;;;;;;;;4956047;28;20125;-51
2023/10/23 06:16:29;;;;;;;14.60;4.95;;;;;;;;;;4973337;28;20524;-51
2023/10/23 06:18:56;;;;;;;9.90;4.32;;;;;;;;;;4973463;28;20050;-51
2023/10/23 06:21:22;;;;;;;7.10;4.50;;;;;;;;;;4972066;28;20046;-54
2023/10/23 06:23:48;;;;;;;8.85;5.20;;;;;;;;;;4973230;28;20033;-54
2023/10/23 06:26:14;;;;;;;8.90;3.55;;;;;;;;;;4973193;28;20034;-54
2023/10/23 06:28:41;;;;;;;5.93;4.38;;;;;;;;;;4973241;28;20038;-53
2023/10/23 06:31:07;;;;;;;5.27;4.03;;;;;;;;;;4973135;28;20019;-52
2023/10/23 06:33:35;;;;;;;8.77;5.32;;;;;;;;;;4973157;28;20636;-50
2023/10/23 06:36:01;;;;;;;9.55;4.63;;;;;;;;;;4973010;28;20104;-45
2023/10/23 06:38:27;;;;;;;11.23;3.80;;;;;;;;;;4973104;28;20023;-46
2023/10/23 06:40:53;;;;;;;5.78;4.25;;;;;;;;;;4973066;28;20026;-47
2023/10/23 06:43:19;;;;;;;7.03;4.15;;;;;;;;;;4971400;28;20034;-46
2023/10/23 06:45:46;;;;;;;8.73;4.57;;;;;;;;;;4972804;28;20477;-46
2023/10/23 06:48:14;;;;;;;11.77;4.37;;;;;;;;;;4972968;28;20034;-45
2023/10/23 06:50:46;;;;;;;8.13;3.88;;;;;;;;;;4972884;28;20089;-45
2023/10/23 06:53:12;;;;;;;12.25;4.20;;;;;;;;;;4972990;28;20034;-45
2023/10/23 06:55:46;;;;;;;9.77;4.90;;;;;;;;;;4972938;28;20034;-45
2023/10/23 06:58:12;;;;;;;9.63;4.68;;;;;;;;;;4972690;28;20039;-46
2023/10/23 07:00:38;;;;;;;12.90;4.20;;;;;;;;;;4972847;28;20042;-46
2023/10/23 07:03:05;;;;;;;11.43;4.18;;;;;;;;;;4972889;28;20031;-46
2023/10/23 07:05:31;;;;;;;7.00;3.80;;;;;;;;;;4972862;28;20038;-46
2023/10/23 07:07:57;;;;;;;8.75;3.88;;;;;;;;;;4972723;28;20026;-46
2023/10/23 07:10:23;;;;;;;15.73;4.80;;;;;;;;;;4972636;28;20050;-45
2023/10/23 07:12:49;;;;;;;8.32;4.47;;;;;;;;;;4973387;28;20083;-49
2023/10/23 07:15:15;;;;;;;44.22;6.57;;;;;;;;;;4959289;28;20031;-45
2023/10/23 07:17:41;;;;;;;14.77;4.20;;;;;;;;;;4957309;29;20027;-45
2023/10/23 07:20:08;;;;;;;9.82;4.15;;;;;;;;;;4957327;28;20039;-48
2023/10/23 07:22:34;;;;;;;10.93;3.90;;;;;;;;;;4957318;29;20019;-47
2023/10/23 07:25:00;;;;;;;6.78;4.35;;;;;;;;;;4957179;29;20285;-45
2023/10/23 07:27:26;;;;;;;10.20;4.63;;;;;;;;;;4957121;29;20078;-48
2023/10/23 07:29:53;;;;;;;11.10;4.43;;;;;;;;;;4957068;29;20462;-46
2023/10/23 07:32:20;;;;;;;;;;;;;;;;;;4957472;28;20037;-46
2023/10/23 07:34:46;;;;;;;9.57;4.97;;;;;;;;;;4955999;29;20000;-49
2023/10/23 07:37:17;;;;;;;9.30;4.80;;;;;;;;;;4956932;29;20031;-45
2023/10/23 07:39:47;;;;;;;9.35;4.70;;;;;;;;;;4957230;29;20098;-46
2023/10/23 07:42:15;;;;;;;8.38;4.82;;;;;;;;;;4957088;28;20042;-46
2023/10/23 07:44:41;;;;;;;7.70;3.90;;;;;;;;;;4969641;28;20070;-48
2023/10/23 07:47:08;;;;;;;6.55;3.35;;;;;;;;;;4976084;28;20394;-47
2023/10/23 07:49:34;;;;;;;5.78;3.55;;;;;;;;;;4976368;28;20030;-50
2023/10/23 07:52:00;;;;;;;10.17;4.13;;;;;;;;;;4975981;28;20035;-49
2023/10/23 07:54:26;;;;;;;10.00;3.77;;;;;;;;;;4976224;28;20026;-55
2023/10/23 07:56:55;;;;;;;9.67;3.53;;;;;;;;;;4976154;28;20039;-55
2023/10/23 07:59:23;;;;;;;7.50;3.35;;;;;;;;;;4974664;28;20078;-55
2023/10/23 08:01:50;;;;;;;9.95;3.47;;;;;;;;;;4975910;28;20059;-55
2023/10/23 08:04:16;;;;;;;9.40;3.67;;;;;;;;;;4975971;28;20061;-56
2023/10/23 08:06:42;;;;;;;7.40;3.35;;;;;;;;;;4970966;28;20258;-53
2023/10/23 08:09:10;;;;;;;6.60;3.37;;;;;;;;;;4956437;28;20110;-52
2023/10/23 08:11:36;;;;;;;;;;;;;;;;;;4956770;28;20437;-52
2023/10/23 08:14:02;;;;;;;8.45;3.70;;;;;;;;;;4962892;28;19914;-53
2023/10/23 08:16:28;;;;;;;10.23;4.75;;;;;;;;;;4958228;28;20045;-51
2023/10/23 08:18:55;;;;;;;7.47;3.67;;;;;;;;;;4975685;28;20031;-52
2023/10/23 08:21:22;;;;;;;8.10;2.92;;;;;;;;;;4975476;28;20038;-53
2023/10/23 08:23:58;;;;;;;5.80;3.17;;;;;;;;;;4975605;28;20035;-53
2023/10/23 08:26:24;;;;;;;6.65;3.00;;;;;;;;;;4973645;28;20046;-47
2023/10/23 08:28:50;;;;;;;15.25;3.13;;;;;;;;;;4975425;28;20031;-46
2023/10/23 08:31:17;;;;;;;10.00;3.67;;;;;;;;;;4975440;28;20059;-46
2023/10/23 08:33:43;;;;;;;6.60;3.03;;;;;;;;;;4974163;28;20026;-47
2023/10/23 08:36:09;;;;;;;7.97;3.17;;;;;;;;;;4957930;28;20089;-45
2023/10/23 08:38:35;;;;;;;10.57;2.97;;;;;;;;;;4975470;28;20022;-45
2023/10/23 08:41:03;;;;;;;8.03;3.00;;;;;;;;;;4973988;28;20310;-49
2023/10/23 08:43:29;;;;;;;;;;;;;;;;;;4975538;28;20023;-47
2023/10/23 08:45:59;;;;;;;5.05;2.97;;;;;;;;;;4972807;28;20008;-48
2023/10/23 08:48:26;;;;;;;12.82;3.45;;;;;;;;;;4957740;28;20114;-53
2023/10/23 08:50:52;;;;;;;6.97;2.40;;;;;;;;;;4974937;28;20027;-52
2023/10/23 08:53:21;;;;;;;7.60;3.50;;;;;;;;;;4975053;28;20103;-50
2023/10/23 08:55:48;;;;;;;7.55;3.83;;;;;;;;;;4973592;28;20277;-51
2023/10/23 08:58:14;;;;;;;6.60;3.78;;;;;;;;;;4973603;28;20129;-48
2023/10/23 09:00:40;;;;;;;6.55;3.47;;;;;;;;;;4974727;28;20045;-50
2023/10/23 09:03:10;;;;;;;10.38;3.22;;;;;;;;;;4974741;28;20066;-52
2023/10/23 09:05:36;;;;;;;7.85;3.60;;;;;;;;;;4974645;28;20039;-49
2023/10/23 09:08:02;;;;;;;7.82;3.65;;;;;;;;;;4974631;28;20194;-49
2023/10/23 09:10:29;;;;;;;15.00;4.15;;;;;;;;;;4974445;28;20073;-53
2023/10/23 09:12:56;;;;;;;10.67;3.63;;;;;;;;;;4974683;28;20042;-48
2023/10/23 09:15:24;;;;;;;6.70;3.05;;;;;;;;;;4974469;28;20121;-49
2023/10/23 09:17:51;;;;;;;6.35;3.70;;;;;;;;;;4974388;28;20099;-52
2023/10/23 09:20:26;;;;;;;9.07;3.60;;;;;;;;;;4973180;28;20031;-51
2023/10/23 09:22:53;;;;;;;8.40;2.92;;;;;;;;;;4973095;28;20038;-49
2023/10/23 09:25:23;;;;;;;5.63;2.60;;;;;;;;;;4974329;28;20101;-51
2023/10/23 09:27:49;;;;;;;6.53;3.00;;;;;;;;;;4972795;28;20062;-51
2023/10/23 09:30:21;;;;;;;3.85;1.63;;;;;;;;;;4972984;28;20482;-50
2023/10/23 09:32:55;;;;;;;5.97;2.83;;;;;;;;;;4974263;28;20042;-52
2023/10/23 09:35:28;;;;;;;4.25;2.33;;;;;;;;;;4974161;28;20417;-50
2023/10/23 09:37:56;;;;;;;5.78;2.17;;;;;;;;;;4971825;28;20035;-53
2023/10/23 09:40:22;;;;;;;5.88;2.17;;;;;;;;;;4974287;28;20031;-53
2023/10/23 09:42:49;;;;;;;6.55;1.67;;;;;;;;;;4974089;28;20037;-50
2023/10/23 09:45:15;;;;;;;8.52;2.50;;;;;;;;;;4973959;28;20058;-49
2023/10/23 09:47:41;;;;;;;5.22;2.10;;;;;;;;;;4973922;28;20122;-52
2023/10/23 09:50:08;;;;;;;4.30;2.60;;;;;;;;;;4972792;28;20052;-51
2023/10/23 09:52:35;;;;;;;3.50;2.13;;;;;;;;;;4973794;28;20026;-49
2023/10/23 09:55:01;;;;;;;;;;;;;;;;;;4974349;28;20030;-53
2023/10/23 09:57:53;;;;;;;4.38;2.03;;;;;;;;;;4956246;28;19932;-53
2023/10/23 10:00:20;;;;;;;6.95;2.00;;;;;;;;;;4971755;28;20054;-48
2023/10/23 10:02:46;;;;;;;5.75;2.55;;;;;;;;;;4972485;28;20465;-52
2023/10/23 10:05:16;;;;;;;4.90;1.97;;;;;;;;;;4972393;28;20038;-48
2023/10/23 10:07:52;;;;;;;7.53;2.50;;;;;;;;;;4973322;28;20265;-48
2023/10/23 10:10:43;;;;;;;6.47;2.30;;;;;;;;;;4974312;28;20050;-48
2023/10/23 10:13:11;;;;;;;5.18;1.90;;;;;;;;;;4973521;28;20030;-49
2023/10/23 10:15:38;;;;;;;2.42;1.70;;;;;;;;;;4973023;28;20114;-48
2023/10/23 10:18:05;;;;;;;8.90;2.22;;;;;;;;;;4968236;28;20074;-48
2023/10/23 10:20:31;;;;;;;4.87;2.67;;;;;;;;;;4960529;28;20514;-51
2023/10/23 10:23:14;;;;;;;10.63;2.72;;;;;;;;;;4969107;28;20050;-54
2023/10/23 10:25:43;;;;;;;11.27;2.47;;;;;;;;;;4972706;28;20027;-52
2023/10/23 10:28:09;;;;;;;6.15;3.10;;;;;;;;;;4973219;28;20041;-53
2023/10/23 10:30:40;;;;;;;5.47;2.85;;;;;;;;;;4972055;28;20031;-51
2023/10/23 10:33:10;;;;;;;5.93;2.13;;;;;;;;;;4973132;28;20031;-49
2023/10/23 10:35:36;;;;;;;12.20;3.40;;;;;;;;;;4972934;28;20367;-53
2023/10/23 10:38:03;;;;;;;5.90;3.10;;;;;;;;;;4971589;28;20030;-53
2023/10/23 10:40:49;;;;;;;7.38;2.50;;;;;;;;;;4973078;28;20441;-55
2023/10/23 10:43:19;;;;;;;4.90;2.50;;;;;;;;;;4953486;29;20106;-52
2023/10/23 10:45:45;;;;;;;5.00;2.50;;;;;;;;;;4959409;28;20153;-50
2023/10/23 10:48:12;;;;;;;4.50;2.38;;;;;;;;;;4971065;28;20038;-50
2023/10/23 10:50:38;;;;;;;6.10;2.40;;;;;;;;;;4971438;28;20027;-53
2023/10/23 10:53:06;;;;;;;7.53;2.40;;;;;;;;;;4955919;28;20397;-52
2023/10/23 10:55:34;;;;;;;4.05;2.17;;;;;;;;;;4971619;28;20031;-51
2023/10/23 10:58:00;;;;;;;6.30;3.33;;;;;;;;;;4972764;28;20070;-50
2023/10/23 11:00:33;;;;;;;6.28;2.63;;;;;;;;;;4972204;28;20509;-55
2023/10/23 11:02:59;;;;;;;343.35;263.98;;;;;;;;;;4972450;28;20066;-52
2023/10/23 11:05:26;;;;;;;11.80;7.32;;;;;;;;;;4972936;28;20449;-52
2023/10/23 11:07:52;;;;;;;5.88;2.38;;;;;;;;;;4972739;28;20532;-53
2023/10/23 11:10:20;;;;;;;4.37;2.13;;;;;;;;;;4971025;28;20025;-50
2023/10/23 11:12:47;;;;;;;4.97;3.03;;;;;;;;;;4971448;28;20285;-51
2023/10/23 11:15:15;;;;;;;6.53;2.30;;;;;;;;;;4970024;28;20081;-53
2023/10/23 11:17:41;;;;;;;3.22;1.83;;;;;;;;;;4972496;28;20429;-53
2023/10/23 11:20:11;;;;;;;3.75;2.13;;;;;;;;;;4972165;28;20045;-51
2023/10/23 11:22:38;;;;;;;3.50;2.10;;;;;;;;;;4965372;28;20042;-53
2023/10/23 11:25:07;;;;;;;9.93;2.97;;;;;;;;;;4971262;28;20023;-50
2023/10/23 11:27:33;;;;;;;5.35;2.50;;;;;;;;;;4970644;28;20600;-50
2023/10/23 11:29:59;;;;;;;8.10;2.45;;;;;;;;;;4970726;28;20062;-49
2023/10/23 11:32:31;;;;;;;6.47;2.30;;;;;;;;;;4970336;28;20022;-49
2023/10/23 11:35:05;;;;;;;5.47;2.30;;;;;;;;;;4971951;28;20117;-50
2023/10/23 11:37:41;;;;;;;7.47;2.80;;;;;;;;;;4972371;28;20034;-49
2023/10/23 11:40:08;;;;;;;7.97;2.30;;;;;;;;;;4972502;28;20051;-49
2023/10/23 11:42:42;;;;;;;5.55;2.20;;;;;;;;;;4972496;28;20034;-52
2023/10/23 11:45:09;;;;;;;3.15;1.85;;;;;;;;;;4971351;28;20420;-53
2023/10/23 11:47:38;;;;;;;6.68;2.70;;;;;;;;;;4972203;28;20027;-50
2023/10/23 11:50:12;;;;;;;4.60;2.80;;;;;;;;;;4971120;28;20085;-48
2023/10/23 11:52:44;;;;;;;3.42;2.50;;;;;;;;;;4972570;28;20512;-48
2023/10/23 11:55:14;;;;;;;4.43;2.50;;;;;;;;;;4972460;28;20118;-52
2023/10/23 11:57:50;;;;;;;5.53;3.08;;;;;;;;;;4972207;28;20039;-49
2023/10/23 12:00:17;;;;;;;6.13;2.40;;;;;;;;;;4973392;28;20030;-48
2023/10/23 12:02:43;;;;;;;4.05;2.20;;;;;;;;;;4975853;28;20031;-49
2023/10/23 12:05:13;;;;;;;;;;;;;;;;;;4976251;28;20034;-47
2023/10/23 12:07:43;;;;;;;6.25;3.05;;;;;;;;;;4974383;28;19945;-48
2023/10/23 12:10:10;;;;;;;5.57;2.40;;;;;;;;;;4975832;28;20089;-49
2023/10/23 12:12:36;;;;;;;;;;;;;;;;;;4976155;28;20039;-52
2023/10/23 12:15:03;;;;;;;6.15;2.35;;;;;;;;;;4975723;28;19949;-48
2023/10/23 12:17:29;;;;;;;4.07;2.45;;;;;;;;;;4974253;28;20062;-49
2023/10/23 12:19:56;;;;;;;8.07;2.87;;;;;;;;;;4975553;28;20110;-48
2023/10/23 12:22:22;;;;;;;8.90;2.90;;;;;;;;;;4975523;28;20329;-49
2023/10/23 12:24:48;;;;;;;6.55;2.72;;;;;;;;;;4974393;28;20035;-48
2023/10/23 12:27:15;;;;;;;8.27;3.40;;;;;;;;;;4974018;28;20046;-48
2023/10/23 12:29:41;;;;;;;;;;;;;;;;;;4975758;28;20058;-51
2023/10/23 12:32:07;;;;;;;7.32;2.80;;;;;;;;;;4975297;28;20009;-48
2023/10/23 12:34:35;;;;;;;5.93;2.60;;;;;;;;;;4975298;28;20034;-50
2023/10/23 12:37:02;;;;;;;4.47;2.67;;;;;;;;;;4975186;28;20397;-48
2023/10/23 12:39:28;;;;;;;;;;;;;;;;;;4974460;28;20042;-49
2023/10/23 12:41:55;;;;;;;6.57;2.78;;;;;;;;;;4975013;28;20436;-49
2023/10/23 12:44:21;;;;;;;5.27;2.97;;;;;;;;;;4974981;28;20031;-48
2023/10/23 12:46:47;;;;;;;6.75;2.67;;;;;;;;;;4974988;28;20034;-48
2023/10/23 12:49:13;;;;;;;5.07;2.70;;;;;;;;;;4975057;28;20436;-48
2023/10/23 12:51:39;;;;;;;10.88;3.40;;;;;;;;;;4957593;28;20122;-49
2023/10/23 12:54:06;;;;;;;4.88;2.97;;;;;;;;;;4973747;28;20482;-48
2023/10/23 12:56:32;;;;;;;4.05;2.58;;;;;;;;;;4974708;28;20026;-49
2023/10/23 12:58:58;;;;;;;4.53;2.60;;;;;;;;;;4974799;28;20031;-48
2023/10/23 13:01:25;;;;;;;5.90;2.65;;;;;;;;;;4974696;28;20035;-48
2023/10/23 13:03:51;;;;;;;7.10;2.33;;;;;;;;;;4974745;28;20027;-48
2023/10/23 13:06:17;;;;;;;10.70;3.03;;;;;;;;;;4974597;28;20113;-50
2023/10/23 13:08:44;;;;;;;10.80;4.55;;;;;;;;;;4973539;28;20637;-48
2023/10/23 13:11:10;;;;;;;3.70;2.45;;;;;;;;;;4974103;28;20058;-48
2023/10/23 13:13:36;;;;;;;8.88;3.63;;;;;;;;;;4974573;28;20034;-49
2023/10/23 13:16:02;;;;;;;9.95;2.75;;;;;;;;;;4974373;28;20035;-48
2023/10/23 13:18:30;;;;;;;4.88;2.55;;;;;;;;;;4974574;28;20030;-48
2023/10/23 13:20:56;;;;;;;6.70;2.50;;;;;;;;;;4974565;28;20118;-48
2023/10/23 13:23:22;;;;;;;10.33;2.67;;;;;;;;;;4973254;28;20035;-48
2023/10/23 13:25:48;;;;;;;7.15;3.40;;;;;;;;;;4974231;28;20062;-48
2023/10/23 13:28:14;;;;;;;4.65;2.47;;;;;;;;;;4974215;28;20458;-48
2023/10/23 13:30:40;;;;;;;8.47;2.90;;;;;;;;;;4974266;28;20090;-49
2023/10/23 13:33:07;;;;;;;3.97;2.97;;;;;;;;;;4974253;28;20301;-51
2023/10/23 13:35:33;;;;;;;4.57;2.57;;;;;;;;;;4974293;28;20740;-49
2023/10/23 13:37:59;;;;;;;5.65;3.13;;;;;;;;;;4974131;28;20042;-48
2023/10/23 13:40:25;;;;;;;8.70;4.20;;;;;;;;;;4974003;28;20045;-48
2023/10/23 13:42:51;;;;;;;9.43;3.20;;;;;;;;;;4973985;28;20114;-48
2023/10/23 13:45:17;;;;;;;11.43;3.47;;;;;;;;;;4973897;28;20023;-48
2023/10/23 13:47:44;;;;;;;8.77;2.57;;;;;;;;;;4973877;28;20027;-48
2023/10/23 13:50:10;;;;;;;10.33;2.57;;;;;;;;;;4973942;28;20266;-50
2023/10/23 13:52:36;;;;;;;7.43;3.25;;;;;;;;;;4972863;28;20277;-50
2023/10/23 13:55:02;;;;;;;5.63;3.30;;;;;;;;;;4973813;28;20035;-47
2023/10/23 13:57:29;;;;;;;9.40;2.55;;;;;;;;;;4973592;28;20058;-48
2023/10/23 13:59:55;;;;;;;8.07;3.00;;;;;;;;;;4973679;28;20027;-48
2023/10/23 14:02:21;;;;;;;7.57;2.28;;;;;;;;;;4973635;28;20034;-49
2023/10/23 14:04:48;;;;;;;9.17;3.27;;;;;;;;;;4973636;28;20035;-51
2023/10/23 14:07:14;;;;;;;4.10;2.30;;;;;;;;;;4972277;28;20266;-49
2023/10/23 14:09:41;;;;;;;8.63;3.73;;;;;;;;;;4973565;28;20445;-48
2023/10/23 14:12:08;;;;;;;7.27;3.00;;;;;;;;;;4973360;28;20278;-48
2023/10/23 14:14:35;;;;;;;5.97;3.20;;;;;;;;;;4972173;28;20027;-47
2023/10/23 14:17:01;;;;;;;;;;;;;;;;;;4973763;28;20034;-47
2023/10/23 14:19:27;;;;;;;7.00;3.15;;;;;;;;;;4973484;28;20292;-48
2023/10/23 14:21:54;;;;;;;5.13;3.27;;;;;;;;;;4973194;28;20078;-48
2023/10/23 14:24:24;;;;;;;5.10;2.63;;;;;;;;;;4971682;28;20030;-43
2023/10/23 14:26:50;;;;;;;5.40;2.80;;;;;;;;;;5006077;23;20050;-47
2023/10/23 14:29:17;;;;;;;11.05;3.42;;;;;;;;;;4977940;28;20062;-47
2023/10/23 14:31:43;;;;;;;8.00;3.35;;;;;;;;;;4973099;28;20074;-46
2023/10/23 14:34:09;;;;;;;10.67;4.33;;;;;;;;;;4974703;28;20027;-48
2023/10/23 14:36:35;;;;;;;6.53;3.45;;;;;;;;;;4962296;28;20649;-47
2023/10/23 14:39:02;;;;;;;10.10;4.10;;;;;;;;;;4960246;28;20081;-46
2023/10/23 14:41:28;;;;;;;10.07;3.45;;;;;;;;;;4960145;28;20030;-47
2023/10/23 14:43:54;;;;;;;7.30;3.70;;;;;;;;;;4956196;28;20656;-49